createdAt,value
2023-04-26T00:01:17.659Z,3.53
2023-04-26T00:03:46.789Z,4.07
2023-04-26T00:06:16.424Z,4.33
2023-04-26T00:08:44.856Z,5.07
2023-04-26T00:11:13.343Z,3.13
2023-04-26T00:13:41.853Z,4.43
2023-04-26T00:16:18.447Z,4.43
2023-04-26T00:18:47.449Z,4.20
2023-04-26T00:21:16.076Z,4.60
2023-04-26T00:23:44.540Z,2.57
2023-04-26T00:26:13.108Z,2.90
2023-04-26T00:28:41.602Z,4.50
2023-04-26T00:31:17.606Z,6.10
2023-04-26T00:33:46.111Z,4.00
2023-04-26T00:36:16.952Z,4.03
2023-04-26T00:38:45.863Z,5.73
2023-04-26T00:41:14.960Z,4.23
2023-04-26T00:43:43.416Z,3.37
2023-04-26T00:46:12.603Z,5.53
2023-04-26T00:48:43.389Z,4.63
2023-04-26T00:51:12.624Z,6.87
2023-04-26T00:53:42.486Z,5.10
2023-04-26T00:56:12.380Z,2.97
2023-04-26T00:58:41.031Z,3.90
2023-04-26T01:01:10.066Z,3.63
2023-04-26T01:03:38.938Z,3.77
2023-04-26T01:06:35.444Z,3.87
2023-04-26T01:09:29.761Z,2.60
2023-04-26T01:12:00.501Z,3.83
2023-04-26T01:14:29.748Z,3.23
2023-04-26T01:16:59.012Z,3.73
2023-04-26T01:19:27.543Z,5.17
2023-04-26T01:21:57.504Z,2.63
2023-04-26T01:24:27.572Z,3.13
2023-04-26T01:26:56.023Z,4.40
2023-04-26T01:29:25.139Z,2.90
2023-04-26T01:31:53.582Z,5.47
2023-04-26T01:34:22.021Z,3.87
2023-04-26T01:36:50.560Z,4.03
2023-04-26T01:39:19.185Z,2.97
2023-04-26T01:41:49.059Z,2.90
2023-04-26T01:44:17.800Z,4.00
2023-04-26T01:46:46.345Z,2.57
2023-04-26T01:49:14.924Z,4.10
2023-04-26T01:51:43.644Z,3.70
2023-04-26T01:54:12.097Z,4.70
2023-04-26T01:56:40.532Z,4.00
2023-04-26T01:59:10.371Z,3.63
2023-04-26T02:01:38.882Z,8.03
2023-04-26T02:04:07.384Z,4.37
2023-04-26T02:06:36.308Z,3.50
2023-04-26T02:09:05.048Z,5.20
2023-04-26T02:11:33.529Z,4.80
2023-04-26T02:14:02.278Z,7.10
2023-04-26T02:16:32.737Z,5.27
2023-04-26T02:19:01.401Z,5.13
2023-04-26T02:21:31.599Z,5.27
2023-04-26T02:24:00.127Z,4.17
2023-04-26T02:26:28.673Z,4.50
2023-04-26T02:28:57.303Z,5.50
2023-04-26T02:31:25.969Z,5.57
2023-04-26T02:33:56.418Z,6.57
2023-04-26T02:36:25.164Z,7.47
2023-04-26T02:38:53.850Z,5.70
2023-04-26T02:41:23.552Z,4.97
2023-04-26T02:43:52.168Z,7.50
2023-04-26T02:46:26.756Z,5.23
2023-04-26T02:48:56.706Z,4.83
2023-04-26T02:51:25.222Z,3.60
2023-04-26T02:53:53.703Z,5.93
2023-04-26T02:56:22.235Z,5.23
2023-04-26T02:58:50.832Z,4.83
2023-04-26T03:01:19.614Z,2.70
2023-04-26T03:03:48.168Z,3.00
2023-04-26T03:06:18.026Z,4.20
2023-04-26T03:08:46.521Z,5.10
2023-04-26T03:11:14.988Z,4.00
2023-04-26T03:13:43.448Z,3.10
2023-04-26T03:16:12.190Z,3.00
2023-04-26T03:18:40.757Z,3.27
2023-04-26T03:21:09.257Z,2.97
2023-04-26T03:23:39.281Z,3.27
2023-04-26T03:26:07.860Z,3.00
2023-04-26T03:28:36.372Z,2.73
2023-04-26T03:31:05.044Z,3.20
2023-04-26T03:33:33.794Z,3.80
2023-04-26T03:36:02.256Z,3.37
2023-04-26T03:38:30.746Z,3.77
2023-04-26T03:41:01.340Z,4.13
2023-04-26T03:43:55.007Z,3.60
2023-04-26T03:46:23.582Z,3.90
2023-04-26T03:48:52.378Z,4.07
2023-04-26T03:51:21.359Z,4.03
2023-04-26T03:53:50.090Z,3.63
2023-04-26T03:56:19.882Z,3.93
2023-04-26T03:58:48.422Z,3.40
2023-04-26T04:01:17.073Z,4.70
2023-04-26T04:03:45.820Z,7.13
2023-04-26T04:06:36.690Z,8.03
2023-04-26T04:09:05.504Z,5.83
2023-04-26T04:11:35.412Z,9.27
2023-04-26T04:14:04.010Z,3.53
2023-04-26T04:16:32.571Z,3.43
2023-04-26T04:19:01.027Z,3.80
2023-04-26T04:21:29.547Z,5.33
2023-04-26T04:23:58.021Z,4.43
2023-04-26T04:26:28.088Z,3.63
2023-04-26T04:28:58.642Z,3.63
2023-04-26T04:31:27.189Z,3.60
2023-04-26T04:33:55.687Z,3.90
2023-04-26T04:36:24.112Z,4.70
2023-04-26T04:38:53.672Z,4.40
2023-04-26T04:41:23.643Z,3.20
2023-04-26T04:43:53.938Z,3.43
2023-04-26T04:46:25.490Z,4.53
2023-04-26T04:48:54.776Z,4.63
2023-04-26T04:51:23.340Z,4.10
2023-04-26T04:53:52.086Z,3.30
2023-04-26T04:56:21.873Z,4.33
2023-04-26T04:58:50.514Z,3.43
2023-04-26T05:01:19.357Z,4.57
2023-04-26T05:03:49.378Z,4.70
2023-04-26T05:06:17.938Z,3.27
2023-04-26T05:08:46.414Z,3.40
2023-04-26T05:11:14.850Z,3.07
2023-04-26T05:13:43.318Z,4.17
2023-04-26T05:16:11.827Z,4.90
2023-04-26T05:18:40.284Z,3.33
2023-04-26T05:21:10.303Z,4.13
2023-04-26T05:23:38.826Z,3.23
2023-04-26T05:26:08.115Z,3.43
2023-04-26T05:29:01.848Z,4.53
2023-04-26T05:31:30.528Z,2.97
2023-04-26T05:33:58.990Z,3.47
2023-04-26T05:36:30.066Z,3.53
2023-04-26T05:38:58.687Z,4.00
2023-04-26T05:41:27.113Z,3.17
2023-04-26T05:43:55.832Z,3.37
2023-04-26T05:46:24.536Z,3.50
2023-04-26T05:48:53.162Z,3.00
2023-04-26T05:51:22.648Z,4.43
2023-04-26T05:53:52.814Z,4.30
2023-04-26T05:56:21.535Z,4.00
2023-04-26T05:58:49.925Z,3.93
2023-04-26T06:01:18.412Z,5.23
2023-04-26T06:03:47.969Z,4.47
2023-04-26T06:06:16.667Z,4.13
2023-04-26T06:08:45.094Z,4.97
2023-04-26T06:11:15.006Z,4.87
2023-04-26T06:13:43.441Z,5.13
2023-04-26T06:16:12.046Z,5.40
2023-04-26T06:18:40.577Z,5.87
2023-04-26T06:21:09.295Z,6.10
2023-04-26T06:23:37.749Z,5.40
2023-04-26T06:26:06.267Z,5.20
2023-04-26T06:28:36.268Z,5.00
2023-04-26T06:31:04.931Z,5.23
2023-04-26T06:33:33.552Z,5.47
2023-04-26T06:36:28.230Z,5.27
2023-04-26T06:38:56.742Z,5.03
2023-04-26T06:41:25.316Z,6.33
2023-04-26T06:43:55.775Z,6.77
2023-04-26T06:46:24.295Z,6.10
2023-04-26T06:48:55.283Z,6.30
2023-04-26T06:51:23.753Z,7.13
2023-04-26T06:53:52.591Z,6.40
2023-04-26T06:56:21.602Z,7.53
2023-04-26T06:59:03.272Z,7.10
2023-04-26T07:01:34.017Z,6.53
2023-04-26T07:04:04.425Z,6.47
2023-04-26T07:06:33.463Z,6.47
2023-04-26T07:09:02.978Z,8.53
2023-04-26T07:11:32.325Z,5.73
2023-04-26T07:14:02.203Z,6.30
2023-04-26T07:16:30.705Z,5.70
2023-04-26T07:18:59.425Z,5.93
2023-04-26T07:21:28.018Z,5.77
2023-04-26T07:24:22.154Z,5.20
2023-04-26T07:26:50.612Z,5.37
2023-04-26T07:29:20.887Z,7.53
2023-04-26T07:31:49.936Z,5.70
2023-04-26T07:34:18.439Z,6.23
2023-04-26T07:36:47.000Z,7.00
2023-04-26T07:39:16.661Z,6.60
2023-04-26T07:41:45.150Z,7.00
2023-04-26T07:44:13.623Z,7.10
2023-04-26T07:46:43.490Z,6.20
2023-04-26T07:49:11.956Z,6.00
2023-04-26T07:51:41.219Z,5.53
2023-04-26T07:54:09.694Z,11.03
2023-04-26T07:56:38.289Z,5.57
2023-04-26T07:59:06.795Z,5.60
2023-04-26T08:01:35.321Z,4.77
2023-04-26T08:04:05.800Z,5.47
2023-04-26T08:06:34.583Z,5.40
2023-04-26T08:09:04.355Z,4.93
2023-04-26T08:11:33.054Z,4.83
2023-04-26T08:14:01.651Z,4.43
2023-04-26T08:16:30.272Z,4.33
2023-04-26T08:19:02.861Z,4.07
2023-04-26T08:21:32.875Z,4.23
2023-04-26T08:24:01.387Z,3.87
2023-04-26T08:26:30.022Z,3.60
2023-04-26T08:28:58.553Z,4.27
2023-04-26T08:31:27.824Z,3.50
2023-04-26T08:33:56.421Z,3.50
2023-04-26T08:36:24.943Z,4.00
2023-04-26T08:38:56.601Z,3.73
2023-04-26T08:41:26.857Z,3.60
2023-04-26T08:43:58.329Z,3.97
2023-04-26T08:46:29.174Z,3.70
2023-04-26T08:49:14.916Z,6.90
2023-04-26T08:51:45.231Z,3.00
2023-04-26T08:54:18.270Z,5.10
2023-04-26T08:56:48.012Z,3.63
2023-04-26T08:59:17.185Z,3.33
2023-04-26T09:01:46.354Z,3.97
2023-04-26T09:04:15.102Z,3.33
2023-04-26T09:06:44.905Z,3.80
2023-04-26T09:09:19.991Z,3.33
2023-04-26T09:12:00.436Z,2.80
2023-04-26T09:14:29.470Z,2.73
2023-04-26T09:16:58.257Z,3.00
2023-04-26T09:19:38.190Z,3.00
2023-04-26T09:22:07.492Z,2.70
2023-04-26T09:24:52.352Z,3.10
2023-04-26T09:27:21.272Z,2.87
2023-04-26T09:30:00.930Z,2.70
2023-04-26T09:32:45.455Z,3.00
2023-04-26T09:35:33.020Z,2.93
2023-04-26T09:38:10.435Z,2.40
2023-04-26T09:40:44.367Z,2.47
2023-04-26T09:43:15.905Z,2.87
2023-04-26T09:45:51.110Z,2.40
2023-04-26T09:48:23.259Z,2.00
2023-04-26T09:50:54.205Z,2.40
2023-04-26T09:53:31.261Z,3.40
2023-04-26T09:56:10.102Z,1.93
2023-04-26T09:58:40.463Z,2.60
2023-04-26T10:01:10.241Z,2.10
2023-04-26T10:03:39.615Z,2.30
2023-04-26T10:06:28.859Z,3.37
2023-04-26T10:08:57.739Z,2.30
2023-04-26T10:11:28.802Z,2.27
2023-04-26T10:13:57.452Z,2.33
2023-04-26T10:16:26.321Z,2.50
2023-04-26T10:18:55.296Z,1.90
2023-04-26T10:21:39.130Z,2.00
2023-04-26T10:24:08.750Z,1.97
2023-04-26T10:26:53.371Z,4.63
2023-04-26T10:29:22.838Z,2.50
2023-04-26T10:32:17.418Z,3.13
2023-04-26T10:34:46.296Z,2.20
2023-04-26T10:37:16.842Z,2.10
2023-04-26T10:39:47.606Z,2.43
2023-04-26T10:42:26.371Z,8.00
2023-04-26T10:45:45.217Z,2.37
2023-04-26T10:48:19.554Z,2.53
2023-04-26T10:51:09.508Z,2.40
2023-04-26T10:54:02.742Z,2.10
2023-04-26T10:56:53.311Z,2.87
2023-04-26T10:59:39.722Z,2.37
2023-04-26T11:02:12.382Z,2.90
2023-04-26T11:04:54.943Z,3.30
2023-04-26T11:07:38.864Z,2.23
2023-04-26T11:10:23.552Z,2.60
2023-04-26T11:13:02.420Z,4.03
2023-04-26T11:15:33.136Z,2.00
2023-04-26T11:18:04.917Z,3.60
2023-04-26T11:20:34.498Z,2.40
2023-04-26T11:23:30.095Z,3.03
2023-04-26T11:26:00.291Z,2.50
2023-04-26T11:28:28.749Z,3.00
2023-04-26T11:30:59.073Z,1.80
2023-04-26T11:33:27.904Z,2.30
2023-04-26T11:35:58.915Z,2.63
2023-04-26T11:38:29.874Z,2.47
2023-04-26T11:41:01.063Z,2.50
2023-04-26T11:43:37.252Z,2.73
2023-04-26T11:46:10.020Z,2.80
2023-04-26T11:48:39.988Z,2.23
2023-04-26T11:51:11.958Z,4.00
2023-04-26T11:53:42.119Z,2.40
2023-04-26T11:56:18.182Z,2.33
2023-04-26T11:58:48.567Z,3.20
2023-04-26T12:01:24.674Z,2.10
2023-04-26T12:03:55.181Z,2.20
2023-04-26T12:06:33.008Z,2.40
2023-04-26T12:09:05.645Z,3.07
2023-04-26T12:11:34.376Z,2.20
2023-04-26T12:14:03.908Z,2.70
2023-04-26T12:16:33.888Z,2.00
2023-04-26T12:19:07.404Z,3.03
2023-04-26T12:21:42.579Z,3.30
2023-04-26T12:24:25.809Z,2.70
2023-04-26T12:26:54.538Z,2.90
2023-04-26T12:29:23.267Z,2.53
2023-04-26T12:31:53.193Z,2.73
2023-04-26T12:34:21.761Z,2.30
2023-04-26T12:36:50.400Z,2.83
2023-04-26T12:39:18.834Z,2.30
2023-04-26T12:41:47.473Z,2.47
2023-04-26T12:44:15.963Z,3.00
2023-04-26T12:46:44.777Z,3.40
2023-04-26T12:49:14.731Z,5.70
2023-04-26T12:51:43.191Z,4.23
2023-04-26T12:54:11.677Z,3.23
2023-04-26T12:56:43.948Z,4.23
2023-04-26T12:59:12.832Z,4.70
2023-04-26T13:01:41.416Z,4.10
2023-04-26T13:04:10.283Z,3.23
2023-04-26T13:06:40.592Z,4.43
2023-04-26T13:09:09.735Z,3.80
2023-04-26T13:11:38.183Z,2.43
2023-04-26T13:14:07.642Z,3.17
2023-04-26T13:16:43.854Z,4.30
2023-04-26T13:19:12.445Z,3.63
2023-04-26T13:21:42.352Z,3.87
2023-04-26T13:24:10.855Z,4.97
2023-04-26T13:26:39.414Z,3.60
2023-04-26T13:29:08.048Z,3.77
2023-04-26T13:31:37.274Z,3.17
2023-04-26T13:34:07.062Z,3.73
2023-04-26T13:36:35.781Z,3.60
2023-04-26T13:39:07.590Z,3.63
2023-04-26T13:41:36.527Z,3.20
2023-04-26T13:44:06.506Z,3.43
2023-04-26T13:46:36.585Z,3.53
2023-04-26T13:49:22.275Z,3.57
2023-04-26T13:51:51.048Z,3.53
2023-04-26T13:54:23.079Z,3.77
2023-04-26T13:56:52.030Z,11.17
2023-04-26T13:59:20.563Z,5.33
2023-04-26T14:01:49.072Z,3.57
2023-04-26T14:04:17.790Z,3.73
2023-04-26T14:06:46.545Z,4.13
2023-04-26T14:09:15.403Z,4.13
2023-04-26T14:11:51.582Z,3.73
2023-04-26T14:14:25.936Z,4.13
2023-04-26T14:16:54.431Z,5.53
2023-04-26T14:19:22.911Z,4.60
2023-04-26T14:21:51.472Z,4.60
2023-04-26T14:24:19.966Z,5.00
2023-04-26T14:26:50.102Z,4.60
2023-04-26T14:29:18.696Z,4.60
2023-04-26T14:31:47.489Z,5.03
2023-04-26T14:34:16.186Z,4.63
2023-04-26T14:36:44.779Z,4.10
2023-04-26T14:39:13.337Z,4.37
2023-04-26T14:41:42.571Z,4.63
2023-04-26T14:44:12.422Z,4.60
2023-04-26T14:46:41.771Z,4.80
2023-04-26T14:49:10.417Z,4.33
2023-04-26T14:51:38.915Z,4.93
2023-04-26T14:54:07.532Z,5.20
2023-04-26T14:56:36.535Z,4.83
2023-04-26T14:59:05.675Z,4.67
2023-04-26T15:01:35.588Z,4.70
2023-04-26T15:04:04.269Z,4.93
2023-04-26T15:06:34.230Z,5.47
2023-04-26T15:09:02.714Z,5.00
2023-04-26T15:12:09.897Z,4.53
2023-04-26T15:14:40.637Z,5.40
2023-04-26T15:17:10.670Z,6.17
2023-04-26T15:19:39.379Z,5.50
2023-04-26T15:22:29.363Z,6.23
2023-04-26T15:24:57.963Z,8.57
2023-04-26T15:27:26.961Z,5.70
2023-04-26T15:29:56.551Z,5.37
2023-04-26T15:32:26.858Z,5.60
2023-04-26T15:34:55.449Z,7.40
2023-04-26T15:37:24.091Z,6.10
2023-04-26T15:39:52.569Z,6.20
2023-04-26T15:42:21.049Z,5.63
2023-04-26T15:44:50.879Z,6.03
2023-04-26T15:47:45.937Z,6.70
2023-04-26T15:50:15.089Z,7.07
2023-04-26T15:52:43.557Z,8.20
2023-04-26T15:55:12.497Z,6.67
2023-04-26T15:57:43.091Z,7.07
2023-04-26T16:00:14.316Z,9.03
2023-04-26T16:02:44.891Z,6.97
2023-04-26T16:05:15.288Z,6.67
2023-04-26T16:08:09.322Z,7.03
2023-04-26T16:10:38.498Z,7.53
2023-04-26T16:13:07.059Z,7.07
2023-04-26T16:15:35.575Z,7.50
2023-04-26T16:18:04.172Z,6.33
2023-04-26T16:20:34.053Z,7.40
2023-04-26T16:23:02.704Z,6.60
2023-04-26T16:25:31.768Z,6.63
2023-04-26T16:28:00.305Z,7.80
2023-04-26T16:30:28.907Z,7.47
2023-04-26T16:32:57.556Z,7.10
2023-04-26T16:35:26.016Z,7.13
2023-04-26T16:37:55.823Z,8.70
2023-04-26T16:40:24.630Z,6.63
2023-04-26T16:42:53.056Z,5.90
2023-04-26T16:45:21.794Z,6.57
2023-04-26T16:47:50.420Z,8.37
2023-04-26T16:50:19.226Z,8.73
2023-04-26T16:52:47.761Z,8.60
2023-04-26T16:55:17.819Z,6.50
2023-04-26T16:57:46.264Z,6.10
2023-04-26T17:00:16.918Z,6.60
2023-04-26T17:02:45.606Z,7.37
2023-04-26T17:05:14.640Z,6.30
2023-04-26T17:07:43.104Z,9.87
2023-04-26T17:10:12.112Z,9.73
2023-04-26T17:12:42.037Z,6.37
2023-04-26T17:15:12.062Z,7.00
2023-04-26T17:17:41.222Z,6.27
2023-04-26T17:20:13.507Z,6.20
2023-04-26T17:22:42.006Z,6.07
2023-04-26T17:25:11.020Z,8.13
2023-04-26T17:27:39.504Z,7.03
2023-04-26T17:30:11.091Z,6.30
2023-04-26T17:32:40.760Z,5.53
2023-04-26T17:35:09.999Z,6.53
2023-04-26T17:37:38.634Z,7.90
2023-04-26T17:40:09.053Z,7.73
2023-04-26T17:42:37.582Z,8.23
2023-04-26T17:45:09.896Z,6.20
2023-04-26T17:47:40.201Z,7.57
2023-04-26T17:50:10.149Z,7.63
2023-04-26T17:52:38.894Z,10.47
2023-04-26T17:55:10.094Z,6.63
2023-04-26T17:57:38.766Z,6.17
2023-04-26T18:00:11.252Z,5.23
2023-04-26T18:02:40.090Z,5.83
2023-04-26T18:05:10.202Z,6.47
2023-04-26T18:07:38.704Z,6.30
2023-04-26T18:10:08.710Z,5.90
2023-04-26T18:12:37.145Z,6.70
2023-04-26T18:15:08.745Z,8.53
2023-04-26T18:17:37.269Z,10.13
2023-04-26T18:20:06.700Z,8.33
2023-04-26T18:22:35.156Z,8.03
2023-04-26T18:25:04.021Z,6.70
2023-04-26T18:27:57.338Z,7.50
2023-04-26T18:30:27.198Z,5.80
2023-04-26T18:32:55.847Z,5.40
2023-04-26T18:35:24.329Z,4.97
2023-04-26T18:37:52.746Z,4.97
2023-04-26T18:40:21.199Z,5.20
2023-04-26T18:42:49.785Z,6.67
2023-04-26T18:45:18.483Z,4.80
2023-04-26T18:47:48.531Z,5.20
2023-04-26T18:50:17.188Z,4.30
2023-04-26T18:52:46.007Z,4.77
2023-04-26T18:55:14.776Z,4.90
2023-04-26T18:57:43.212Z,4.50
2023-04-26T19:00:13.103Z,5.13
2023-04-26T19:02:41.712Z,4.87
2023-04-26T19:05:13.178Z,4.27
2023-04-26T19:07:41.852Z,6.00
2023-04-26T19:10:11.575Z,4.87
2023-04-26T19:12:43.795Z,4.80
2023-04-26T19:15:13.091Z,5.67
2023-04-26T19:17:41.839Z,4.93
2023-04-26T19:20:15.026Z,4.60
2023-04-26T19:22:45.322Z,4.80
2023-04-26T19:25:14.790Z,5.57
2023-04-26T19:27:43.336Z,5.90
2023-04-26T19:30:13.085Z,9.93
2023-04-26T19:32:41.909Z,6.90
2023-04-26T19:35:11.952Z,7.20
2023-04-26T19:37:40.430Z,6.30
2023-04-26T19:40:11.178Z,5.63
2023-04-26T19:42:39.694Z,6.70
2023-04-26T19:45:12.507Z,5.10
2023-04-26T19:47:43.764Z,7.20
2023-04-26T19:50:14.170Z,5.97
2023-04-26T19:52:42.612Z,7.77
2023-04-26T19:55:29.814Z,6.43
2023-04-26T19:57:59.420Z,7.27
2023-04-26T20:00:30.213Z,6.70
2023-04-26T20:02:59.582Z,7.30
2023-04-26T20:05:29.967Z,6.90
2023-04-26T20:07:58.483Z,6.57
2023-04-26T20:10:26.937Z,6.23
2023-04-26T20:12:55.382Z,7.93
2023-04-26T20:15:24.321Z,5.23
2023-04-26T20:17:53.110Z,7.13
2023-04-26T20:20:21.838Z,6.70
2023-04-26T20:22:51.700Z,6.27
2023-04-26T20:25:20.304Z,7.50
2023-04-26T20:27:49.213Z,6.50
2023-04-26T20:30:17.714Z,6.23
2023-04-26T20:32:46.814Z,10.63
2023-04-26T20:35:15.457Z,6.10
2023-04-26T20:37:43.913Z,9.33
2023-04-26T20:40:14.318Z,8.03
2023-04-26T20:42:42.873Z,7.80
2023-04-26T20:45:12.643Z,6.97
2023-04-26T20:47:41.291Z,8.50
2023-04-26T20:50:11.110Z,10.10
2023-04-26T20:52:39.598Z,6.57
2023-04-26T20:55:14.083Z,8.73
2023-04-26T20:57:42.866Z,8.27
2023-04-26T21:00:13.216Z,6.80
2023-04-26T21:02:42.141Z,6.37
2023-04-26T21:05:11.674Z,4.83
2023-04-26T21:07:40.188Z,8.23
2023-04-26T21:10:10.261Z,7.90
2023-04-26T21:12:41.761Z,6.77
2023-04-26T21:15:11.665Z,4.20
2023-04-26T21:17:41.066Z,7.40
2023-04-26T21:20:10.702Z,7.30
2023-04-26T21:22:39.175Z,8.50
2023-04-26T21:25:08.544Z,7.47
2023-04-26T21:27:36.935Z,7.80
2023-04-26T21:30:08.996Z,5.23
2023-04-26T21:32:37.811Z,9.57
2023-04-26T21:35:07.301Z,6.87
2023-04-26T21:37:35.867Z,6.10
2023-04-26T21:40:05.059Z,8.10
2023-04-26T21:42:33.569Z,5.87
2023-04-26T21:45:02.160Z,8.73
2023-04-26T21:47:32.043Z,7.50
2023-04-26T21:50:00.824Z,6.70
2023-04-26T21:52:32.538Z,8.20
2023-04-26T21:55:01.271Z,7.80
2023-04-26T21:57:29.733Z,6.40
2023-04-26T21:59:58.217Z,9.67
2023-04-26T22:02:27.041Z,6.30
2023-04-26T22:04:57.114Z,5.17
2023-04-26T22:07:25.657Z,5.47
2023-04-26T22:09:54.129Z,6.87
2023-04-26T22:12:22.516Z,5.70
2023-04-26T22:14:50.965Z,8.13
2023-04-26T22:17:19.417Z,6.37
2023-04-26T22:19:47.966Z,7.97
2023-04-26T22:22:17.801Z,6.97
2023-04-26T22:24:46.553Z,6.33
2023-04-26T22:27:14.980Z,5.83
2023-04-26T22:29:43.437Z,6.77
2023-04-26T22:32:12.113Z,5.40
2023-04-26T22:34:43.105Z,6.63
2023-04-26T22:37:20.775Z,7.40
2023-04-26T22:39:52.796Z,8.00
2023-04-26T22:42:21.298Z,9.73
2023-04-26T22:44:49.720Z,5.63
2023-04-26T22:47:18.573Z,6.03
2023-04-26T22:49:47.084Z,9.13
2023-04-26T22:52:40.764Z,5.27
2023-04-26T22:55:11.510Z,5.63
2023-04-26T22:57:39.936Z,5.20
2023-04-26T23:00:12.418Z,4.17
2023-04-26T23:02:41.237Z,5.30
2023-04-26T23:05:10.784Z,7.57
2023-04-26T23:07:40.014Z,4.53
2023-04-26T23:10:10.818Z,6.90
2023-04-26T23:12:40.708Z,4.93
2023-04-26T23:15:10.618Z,9.33
2023-04-26T23:17:41.779Z,8.37
2023-04-26T23:20:12.940Z,8.70
2023-04-26T23:22:42.479Z,5.17
2023-04-26T23:25:12.380Z,8.40
2023-04-26T23:27:40.912Z,5.90
2023-04-26T23:30:10.830Z,5.93
2023-04-26T23:32:39.412Z,6.33
2023-04-26T23:35:09.055Z,4.83
2023-04-26T23:37:37.596Z,6.03
2023-04-26T23:40:09.302Z,7.07
2023-04-26T23:42:39.171Z,9.60
2023-04-26T23:45:09.796Z,5.23
2023-04-26T23:47:38.463Z,4.80
2023-04-26T23:50:12.973Z,6.87
2023-04-26T23:52:41.550Z,5.87
2023-04-26T23:55:11.212Z,6.03
2023-04-26T23:57:41.078Z,5.00
